CMA CGM Musca — 2CAC8 — position and weather

sailwx.info

Track history (hours):
 
Tides and Currents Weather Stations Pressure Air Temp Water Temp Dewpoint Dewpoint Depression Visibility Wind Speed Wind Dir Waves Ship Positions

CMA CGM Musca

Last reported at 2017-Jun-23 10:23 UTC. Time now 2017-Jun-23 10:35 UTC.
Position N 24°27' E 117°59'.

Length 347 m; draft 13.7 m.

Type: Ship (hazmat cat A). MMSI: 235070914.

Date/timePositionNaut miles runAvg speedWind from/ knotsBaromVisibWave heightAir tempDewpointWater temp
2017-Jun-23 10:23N 24°27' E 117°59'0 0.0
2017-Jun-23 10:00N 24°27' E 117°59'0 0.0
2017-Jun-23 09:30N 24°27' E 117°59'0 0.0
2017-Jun-23 08:57N 24°27' E 117°59'0 0.0
2017-Jun-23 08:30N 24°27' E 117°59'0 0.0
2017-Jun-23 08:00N 24°27' E 117°59'0 0.0
2017-Jun-23 07:18N 24°27' E 117°59'0 0.0
2017-Jun-23 06:49N 24°27' E 117°59'0 0.0
2017-Jun-23 06:30N 24°27' E 117°59'0 0.0
2017-Jun-23 05:55N 24°27' E 117°59'0 0.0
2017-Jun-23 05:17N 24°27' E 117°59'0 0.0
2017-Jun-23 04:45N 24°27' E 117°59'0 0.0
2017-Jun-23 04:28N 24°27' E 117°59'0 0.0
2017-Jun-23 03:58N 24°27' E 117°59'0 0.0
2017-Jun-23 03:29N 24°27' E 117°59'0 0.0
2017-Jun-23 03:00N 24°27' E 117°59'0 0.0
2017-Jun-23 02:27N 24°27' E 117°59'0 0.0
2017-Jun-23 01:45N 24°27' E 117°59'0 0.0
2017-Jun-23 01:30N 24°27' E 117°59'0 0.0
2017-Jun-23 00:49N 24°27' E 117°59'0 0.0
2017-Jun-23 00:30N 24°27' E 117°59'0 0.0
2017-Jun-23 00:00N 24°27' E 117°59'0 0.0
2017-Jun-22 23:27N 24°27' E 117°59'0 0.0
2017-Jun-22 22:50N 24°27' E 117°59'0 0.0
2017-Jun-22 22:29N 24°27' E 117°59'0 0.0
2017-Jun-22 22:00N 24°27' E 117°59'0 0.0
2017-Jun-22 21:31N 24°27' E 117°59'0 0.0
2017-Jun-22 21:00N 24°27' E 117°59'0 0.0
2017-Jun-22 20:30N 24°27' E 117°59'0 0.0
2017-Jun-22 19:46N 24°27' E 117°59'0 0.0
2017-Jun-22 19:28N 24°27' E 117°59'0 0.0
2017-Jun-22 18:56N 24°27' E 117°59'0 0.0
2017-Jun-22 18:29N 24°27' E 117°59'0 0.0
2017-Jun-22 18:00N 24°27' E 117°59'2 3.3
2017-Jun-22 17:30N 24°27' E 118°00'510.1
2017-Jun-22 17:00N 24°24' E 118°06'5 9.5
2017-Jun-22 16:29N 24°21' E 118°10'510.9
2017-Jun-22 16:00N 24°17' E 118°13'714.5
2017-Jun-22 15:30N 24°11' E 118°18'3 5.1
2017-Jun-22 14:57N 24°10' E 118°21'1 3.0
2017-Jun-22 14:29N 24°11' E 118°22'4 4.0
2017-Jun-22 13:28N 24°11' E 118°27'4 8.7
2017-Jun-22 13:00N 24°12' E 118°31'4 8.3
2017-Jun-22 12:30N 24°14' E 118°35'610.2
2017-Jun-22 11:56N 24°16' E 118°41'610.5
2017-Jun-22 11:21N 24°18' E 118°47'410.3
2017-Jun-22 11:00N 24°20' E 118°51'610.4
2017-Jun-22 10:23N 24°23' E 118°57'410.4
2017-Jun-22 09:58N 24°24' E 119°01'910.4
2017-Jun-22 09:05N 24°28' E 119°10'  
2017-Jun-18 04:36N 31°26' E 124°39'8819.0
2017-Jun-17 23:57N 32°21' E 126°00'  
2017-Jun-15 11:37N 34°47' E 123°33'14715.3
2017-Jun-15 02:00N 35°55' E 120°53'1020.9
2017-Jun-15 01:30N 35°57' E 120°41'918.7
2017-Jun-15 01:00N 35°59' E 120°29'816.0
2017-Jun-15 00:30N 36°01' E 120°20'510.1
2017-Jun-14 23:59N 36°01' E 120°13'1 1.1
2017-Jun-14 22:50N 36°00' E 120°12'0 0.0
2017-Jun-14 22:29N 36°00' E 120°12'0 0.0
2017-Jun-14 21:56N 36°00' E 120°12'0 0.0
2017-Jun-14 21:29N 36°00' E 120°12'0 0.0
2017-Jun-14 20:40N 36°00' E 120°12'0 0.0
2017-Jun-14 20:19N 36°00' E 120°12'  
Track history (hours):
 
Tides and Currents Weather Stations Pressure Air Temp Water Temp Dewpoint Dewpoint Depression Visibility Wind Speed Wind Dir Waves Ship Positions

CMA CGM Musca

Last reported at 2017-Jun-23 10:23 UTC. Time now 2017-Jun-23 10:35 UTC.
Position N 24°27' E 117°59'.

Length 347 m; draft 13.7 m.

Type: Ship (hazmat cat A). MMSI: 235070914.

Date/timePositionNaut miles runAvg speedWind from/ knotsBaromVisibWave heightAir tempDewpointWater temp
2017-Jun-23 10:23N 24°27' E 117°59'0 0.0
2017-Jun-23 10:00N 24°27' E 117°59'0 0.0
2017-Jun-23 09:30N 24°27' E 117°59'0 0.0
2017-Jun-23 08:57N 24°27' E 117°59'0 0.0
2017-Jun-23 08:30N 24°27' E 117°59'0 0.0
2017-Jun-23 08:00N 24°27' E 117°59'0 0.0
2017-Jun-23 07:18N 24°27' E 117°59'0 0.0
2017-Jun-23 06:49N 24°27' E 117°59'0 0.0
2017-Jun-23 06:30N 24°27' E 117°59'0 0.0
2017-Jun-23 05:55N 24°27' E 117°59'0 0.0
2017-Jun-23 05:17N 24°27' E 117°59'0 0.0
2017-Jun-23 04:45N 24°27' E 117°59'0 0.0
2017-Jun-23 04:28N 24°27' E 117°59'0 0.0
2017-Jun-23 03:58N 24°27' E 117°59'0 0.0
2017-Jun-23 03:29N 24°27' E 117°59'0 0.0
2017-Jun-23 03:00N 24°27' E 117°59'0 0.0
2017-Jun-23 02:27N 24°27' E 117°59'0 0.0
2017-Jun-23 01:45N 24°27' E 117°59'0 0.0
2017-Jun-23 01:30N 24°27' E 117°59'0 0.0
2017-Jun-23 00:49N 24°27' E 117°59'0 0.0
2017-Jun-23 00:30N 24°27' E 117°59'0 0.0
2017-Jun-23 00:00N 24°27' E 117°59'0 0.0
2017-Jun-22 23:27N 24°27' E 117°59'0 0.0
2017-Jun-22 22:50N 24°27' E 117°59'0 0.0
2017-Jun-22 22:29N 24°27' E 117°59'0 0.0
2017-Jun-22 22:00N 24°27' E 117°59'0 0.0
2017-Jun-22 21:31N 24°27' E 117°59'0 0.0
2017-Jun-22 21:00N 24°27' E 117°59'0 0.0
2017-Jun-22 20:30N 24°27' E 117°59'0 0.0
2017-Jun-22 19:46N 24°27' E 117°59'0 0.0
2017-Jun-22 19:28N 24°27' E 117°59'0 0.0
2017-Jun-22 18:56N 24°27' E 117°59'0 0.0
2017-Jun-22 18:29N 24°27' E 117°59'0 0.0
2017-Jun-22 18:00N 24°27' E 117°59'2 3.3
2017-Jun-22 17:30N 24°27' E 118°00'510.1
2017-Jun-22 17:00N 24°24' E 118°06'5 9.5
2017-Jun-22 16:29N 24°21' E 118°10'510.9
2017-Jun-22 16:00N 24°17' E 118°13'714.5
2017-Jun-22 15:30N 24°11' E 118°18'3 5.1
2017-Jun-22 14:57N 24°10' E 118°21'1 3.0
2017-Jun-22 14:29N 24°11' E 118°22'4 4.0
2017-Jun-22 13:28N 24°11' E 118°27'4 8.7
2017-Jun-22 13:00N 24°12' E 118°31'4 8.3
2017-Jun-22 12:30N 24°14' E 118°35'610.2
2017-Jun-22 11:56N 24°16' E 118°41'610.5
2017-Jun-22 11:21N 24°18' E 118°47'410.3
2017-Jun-22 11:00N 24°20' E 118°51'610.4
2017-Jun-22 10:23N 24°23' E 118°57'410.4
2017-Jun-22 09:58N 24°24' E 119°01'910.4
2017-Jun-22 09:05N 24°28' E 119°10'  
2017-Jun-18 04:36N 31°26' E 124°39'8819.0
2017-Jun-17 23:57N 32°21' E 126°00'  
2017-Jun-15 11:37N 34°47' E 123°33'14715.3
2017-Jun-15 02:00N 35°55' E 120°53'1020.9
2017-Jun-15 01:30N 35°57' E 120°41'918.7
2017-Jun-15 01:00N 35°59' E 120°29'816.0
2017-Jun-15 00:30N 36°01' E 120°20'510.1
2017-Jun-14 23:59N 36°01' E 120°13'1 1.1
2017-Jun-14 22:50N 36°00' E 120°12'0 0.0
2017-Jun-14 22:29N 36°00' E 120°12'0 0.0
2017-Jun-14 21:56N 36°00' E 120°12'0 0.0
2017-Jun-14 21:29N 36°00' E 120°12'0 0.0
2017-Jun-14 20:40N 36°00' E 120°12'0 0.0
2017-Jun-14 20:19N 36°00' E 120°12'  

Dump ship's entire track history